createdAt,value
2019-05-07T00:02:16.032Z,8.57
2019-05-07T00:07:23.659Z,9.27
2019-05-07T00:12:32.311Z,10.33
2019-05-07T00:17:40.025Z,9.27
2019-05-07T00:22:47.289Z,9.03
2019-05-07T00:27:54.652Z,6.60
2019-05-07T00:33:02.740Z,12.67
2019-05-07T00:38:12.957Z,9.17
2019-05-07T00:43:23.587Z,9.47
2019-05-07T00:48:32.898Z,8.30
2019-05-07T00:53:39.823Z,15.40
2019-05-07T00:58:47.143Z,13.47
2019-05-07T01:03:54.572Z,8.33
2019-05-07T01:09:03.147Z,9.23
2019-05-07T01:14:12.383Z,9.10
2019-05-07T01:19:21.823Z,8.27
2019-05-07T01:24:28.773Z,11.53
2019-05-07T01:29:36.230Z,11.03
2019-05-07T01:35:08.569Z,11.13
2019-05-07T01:40:16.029Z,12.67
2019-05-07T01:45:24.894Z,11.00
2019-05-07T01:50:32.500Z,9.63
2019-05-07T01:55:39.811Z,10.97
2019-05-07T02:00:47.045Z,12.00
2019-05-07T02:06:04.804Z,8.33
2019-05-07T02:11:14.278Z,8.87
2019-05-07T02:16:21.875Z,13.20
2019-05-07T02:21:29.396Z,9.23
2019-05-07T02:26:37.799Z,11.87
2019-05-07T02:31:45.132Z,11.60
2019-05-07T02:36:53.907Z,10.30
2019-05-07T02:42:03.681Z,8.97
2019-05-07T02:47:17.271Z,14.27
2019-05-07T02:52:46.967Z,11.07
2019-05-07T02:57:54.728Z,12.30
2019-05-07T03:03:04.132Z,12.83
2019-05-07T03:08:13.350Z,12.60
2019-05-07T03:13:23.423Z,11.73
2019-05-07T03:18:33.147Z,9.07
2019-05-07T03:23:47.008Z,9.50
2019-05-07T03:29:06.596Z,12.10
2019-05-07T03:34:36.102Z,10.53
2019-05-07T03:39:42.959Z,12.43
2019-05-07T03:45:17.346Z,18.50
2019-05-07T03:50:24.716Z,11.87
2019-05-07T03:55:33.278Z,12.97
2019-05-07T04:00:44.350Z,11.30
2019-05-07T04:05:53.149Z,11.27
2019-05-07T04:11:03.207Z,10.37
2019-05-07T04:16:08.748Z,10.37
2019-05-07T04:21:16.221Z,11.13
2019-05-07T04:26:36.311Z,13.33
2019-05-07T04:31:44.028Z,13.00
2019-05-07T04:36:53.430Z,13.87
2019-05-07T04:42:03.404Z,15.00
2019-05-07T04:47:09.375Z,13.37
2019-05-07T04:52:24.381Z,13.03
2019-05-07T04:57:33.096Z,12.00
2019-05-07T05:03:12.933Z,15.30
2019-05-07T05:08:22.982Z,13.70
2019-05-07T05:13:29.440Z,12.10
2019-05-07T05:18:36.823Z,16.33
2019-05-07T05:24:02.898Z,17.87
2019-05-07T05:29:12.127Z,24.87
2019-05-07T05:34:19.265Z,20.90
2019-05-07T05:39:26.590Z,25.57
2019-05-07T05:44:34.584Z,19.57
2019-05-07T05:49:42.854Z,16.23
2019-05-07T05:55:15.197Z,13.63
2019-05-07T06:00:53.014Z,17.00
2019-05-07T06:06:25.237Z,23.63
2019-05-07T06:11:43.096Z,13.23
2019-05-07T06:17:09.165Z,16.33
2019-05-07T06:22:38.179Z,16.27
2019-05-07T06:27:46.525Z,17.07
2019-05-07T06:32:53.843Z,14.27
2019-05-07T06:38:02.875Z,18.73
2019-05-07T06:43:24.552Z,17.10
2019-05-07T06:48:42.309Z,19.77
2019-05-07T06:53:42.218Z,19.67
2019-05-07T06:59:14.503Z,18.97
2019-05-07T07:04:43.792Z,17.90
2019-05-07T07:10:13.093Z,18.77
2019-05-07T07:15:23.035Z,18.87
2019-05-07T07:20:29.451Z,22.23
2019-05-07T07:25:37.079Z,17.87
2019-05-07T07:30:59.359Z,19.10
2019-05-07T07:36:06.882Z,20.40
2019-05-07T07:41:32.522Z,25.03
2019-05-07T07:46:39.483Z,20.33
2019-05-07T07:51:46.864Z,24.27
2019-05-07T07:57:25.014Z,22.63
2019-05-07T08:02:52.922Z,23.47
2019-05-07T08:08:02.154Z,25.17
2019-05-07T08:13:09.044Z,27.97
2019-05-07T08:18:16.513Z,30.43
2019-05-07T08:23:23.879Z,30.27
2019-05-07T08:28:31.976Z,29.03
2019-05-07T08:33:47.294Z,30.53
2019-05-07T08:38:57.643Z,32.33
2019-05-07T08:44:15.747Z,30.50
2019-05-07T08:49:35.610Z,32.73
2019-05-07T08:54:34.524Z,31.27
2019-05-07T08:59:46.749Z,30.83
2019-05-07T09:04:52.264Z,30.97
2019-05-07T09:10:02.482Z,32.67
2019-05-07T09:15:12.417Z,35.23
2019-05-07T09:20:22.844Z,36.80
2019-05-07T09:25:32.521Z,40.77
2019-05-07T09:30:59.182Z,35.53
2019-05-07T09:36:12.036Z,36.03
2019-05-07T09:41:28.154Z,36.47
2019-05-07T09:46:35.603Z,34.20
2019-05-07T09:51:42.902Z,33.40
2019-05-07T09:56:52.500Z,37.63
2019-05-07T10:02:01.646Z,44.70
2019-05-07T10:07:08.416Z,40.30
2019-05-07T10:12:26.289Z,31.37
2019-05-07T10:17:52.513Z,28.23
2019-05-07T10:23:02.425Z,29.80
2019-05-07T10:28:12.394Z,30.27
2019-05-07T10:33:19.500Z,32.67
2019-05-07T10:38:26.749Z,33.37
2019-05-07T10:43:34.251Z,27.57
2019-05-07T10:49:15.343Z,30.40
2019-05-07T10:54:23.293Z,30.47
2019-05-07T10:59:30.624Z,29.27
2019-05-07T11:04:42.098Z,30.20
2019-05-07T11:09:46.913Z,28.67
2019-05-07T11:14:54.281Z,24.23
2019-05-07T11:20:01.592Z,25.40
2019-05-07T11:25:11.885Z,22.27
2019-05-07T11:30:22.673Z,22.57
2019-05-07T11:35:31.803Z,22.67
2019-05-07T11:40:38.960Z,22.23
2019-05-07T11:45:54.489Z,21.67
2019-05-07T11:51:12.359Z,18.43
2019-05-07T11:56:19.703Z,19.47
2019-05-07T12:01:40.210Z,18.67
2019-05-07T12:06:36.036Z,21.43
2019-05-07T12:11:43.355Z,15.60
2019-05-07T12:16:50.629Z,13.87
2019-05-07T12:21:58.449Z,16.57
2019-05-07T12:27:05.921Z,14.97
2019-05-07T12:32:27.803Z,15.47
2019-05-07T12:37:36.098Z,14.17
2019-05-07T12:42:45.614Z,12.73
2019-05-07T12:47:53.015Z,11.97
2019-05-07T12:53:15.816Z,9.53
2019-05-07T12:58:23.114Z,7.20
2019-05-07T13:03:43.196Z,8.03
2019-05-07T13:08:52.177Z,7.58
2019-05-07T13:13:59.712Z,6.65
2019-05-07T13:19:07.045Z,5.80
2019-05-07T13:24:14.958Z,6.67
2019-05-07T13:29:22.507Z,6.77
2019-05-07T13:34:33.719Z,6.50
2019-05-07T13:39:48.915Z,7.43
2019-05-07T13:45:24.410Z,8.47
2019-05-07T13:50:32.741Z,6.13
2019-05-07T13:55:42.224Z,5.60
2019-05-07T14:01:06.074Z,6.20
2019-05-07T14:06:16.723Z,5.90
2019-05-07T14:11:24.837Z,8.87
2019-05-07T14:16:32.216Z,9.03
2019-05-07T14:21:41.973Z,7.87
2019-05-07T14:26:48.578Z,7.40
2019-05-07T14:32:03.461Z,10.20
2019-05-07T14:37:18.775Z,6.63
2019-05-07T14:42:32.827Z,6.43
2019-05-07T14:47:44.415Z,6.43
2019-05-07T14:52:49.543Z,6.87
2019-05-07T14:57:57.029Z,6.50
2019-05-07T15:03:04.737Z,7.33
2019-05-07T15:08:14.424Z,6.47
2019-05-07T15:13:21.864Z,7.10
2019-05-07T15:18:47.463Z,7.23
2019-05-07T15:23:57.871Z,7.00
2019-05-07T15:29:12.126Z,6.83
2019-05-07T15:34:19.407Z,5.50
2019-05-07T15:39:26.803Z,9.13
2019-05-07T15:44:34.209Z,7.23
2019-05-07T15:49:41.850Z,6.47
2019-05-07T15:54:49.417Z,6.60
2019-05-07T16:00:06.972Z,7.27
2019-05-07T16:05:14.669Z,6.77
2019-05-07T16:10:23.244Z,6.67
2019-05-07T16:15:31.992Z,8.93
2019-05-07T16:20:39.714Z,7.50
2019-05-07T16:25:47.117Z,7.97
2019-05-07T16:30:54.536Z,7.20
2019-05-07T16:36:02.177Z,7.37
2019-05-07T16:41:13.396Z,5.77
2019-05-07T16:46:18.727Z,6.47
2019-05-07T16:51:26.125Z,6.77
2019-05-07T16:56:33.577Z,6.53
2019-05-07T17:01:42.945Z,7.47
2019-05-07T17:06:52.162Z,6.43
2019-05-07T17:12:01.531Z,8.13
2019-05-07T17:17:09.259Z,6.97
2019-05-07T17:22:17.095Z,7.13
2019-05-07T17:27:24.949Z,5.80
2019-05-07T17:32:33.503Z,8.57
2019-05-07T17:37:41.478Z,6.33
2019-05-07T17:42:49.085Z,7.77
2019-05-07T17:47:56.770Z,7.97
2019-05-07T17:53:04.472Z,6.40
2019-05-07T17:58:12.888Z,8.97
2019-05-07T18:03:34.210Z,6.53
2019-05-07T18:08:42.132Z,7.80
2019-05-07T18:13:51.748Z,6.87
2019-05-07T18:19:02.095Z,25.43
2019-05-07T18:24:13.627Z,7.33
2019-05-07T18:29:18.950Z,6.60
2019-05-07T18:34:26.349Z,8.43
2019-05-07T18:39:33.756Z,9.33
2019-05-07T18:44:41.720Z,9.03
2019-05-07T18:49:49.381Z,7.30
2019-05-07T18:54:56.754Z,9.07
2019-05-07T19:00:05.346Z,10.47
2019-05-07T19:05:13.172Z,9.70
2019-05-07T19:10:22.022Z,14.23
2019-05-07T19:15:29.673Z,9.93
2019-05-07T19:20:37.043Z,12.37
2019-05-07T19:25:45.534Z,10.73
2019-05-07T19:30:53.156Z,15.37
2019-05-07T19:36:00.744Z,12.83
2019-05-07T19:41:08.259Z,9.83
2019-05-07T19:46:15.553Z,12.00
2019-05-07T19:51:22.987Z,12.80
2019-05-07T19:56:32.344Z,10.03
2019-05-07T20:01:44.436Z,10.47
2019-05-07T20:06:52.293Z,12.17
2019-05-07T20:11:59.895Z,10.33
2019-05-07T20:17:07.382Z,10.57
2019-05-07T20:22:14.740Z,10.60
2019-05-07T20:27:23.252Z,11.83
2019-05-07T20:32:32.840Z,10.63
2019-05-07T20:37:41.803Z,13.10
2019-05-07T20:42:48.782Z,14.97
2019-05-07T20:47:56.126Z,15.67
2019-05-07T20:53:03.448Z,10.57
2019-05-07T20:58:12.828Z,12.17
2019-05-07T21:03:23.960Z,10.53
2019-05-07T21:08:32.130Z,12.03
2019-05-07T21:13:42.073Z,13.17
2019-05-07T21:18:48.731Z,14.17
2019-05-07T21:23:56.200Z,12.80
2019-05-07T21:29:03.553Z,12.77
2019-05-07T21:34:12.375Z,14.27
2019-05-07T21:39:22.200Z,13.27
2019-05-07T21:44:29.156Z,13.87
2019-05-07T21:49:36.475Z,13.17
2019-05-07T21:55:12.745Z,12.87
2019-05-07T22:00:41.840Z,12.20
2019-05-07T22:05:51.729Z,13.27
2019-05-07T22:10:59.172Z,16.07
2019-05-07T22:16:07.661Z,14.13
2019-05-07T22:21:14.981Z,15.03
2019-05-07T22:26:26.228Z,13.67
2019-05-07T22:31:48.951Z,15.57
2019-05-07T22:36:56.310Z,15.37
2019-05-07T22:42:14.288Z,13.80
2019-05-07T22:47:22.573Z,16.13
2019-05-07T22:52:32.128Z,15.53
2019-05-07T22:58:07.138Z,15.33
2019-05-07T23:03:14.842Z,16.90
2019-05-07T23:08:22.311Z,18.53
2019-05-07T23:13:31.754Z,20.13
2019-05-07T23:18:38.514Z,17.27
2019-05-07T23:23:45.804Z,20.43
2019-05-07T23:28:53.142Z,17.13
2019-05-07T23:34:01.869Z,16.83
2019-05-07T23:39:11.977Z,18.43
2019-05-07T23:44:22.731Z,16.33
2019-05-07T23:49:29.707Z,17.43
2019-05-07T23:54:36.928Z,17.93
2019-05-07T23:59:44.327Z,18.07
